createdAt,value
2019-01-08T00:00:58.487Z,85.29
2019-01-08T00:03:27.633Z,85.25
2019-01-08T00:05:57.708Z,85.34
2019-01-08T00:08:27.409Z,85.37
2019-01-08T00:10:56.555Z,85.36
2019-01-08T00:13:26.098Z,85.58
2019-01-08T00:15:55.519Z,85.51
2019-01-08T00:18:26.769Z,85.51
2019-01-08T00:20:55.916Z,85.71
2019-01-08T00:23:28.168Z,85.77
2019-01-08T00:25:57.634Z,85.78
2019-01-08T00:28:26.945Z,85.59
2019-01-08T00:30:56.140Z,85.62
2019-01-08T00:33:25.232Z,85.78
2019-01-08T00:35:54.410Z,85.73
2019-01-08T00:38:23.971Z,85.77
2019-01-08T00:40:53.153Z,85.56
2019-01-08T00:43:22.386Z,85.83
2019-01-08T00:45:51.653Z,85.72
2019-01-08T00:48:23.775Z,85.92
2019-01-08T00:50:52.872Z,85.88
2019-01-08T00:53:21.969Z,85.90
2019-01-08T00:55:51.118Z,86.08
2019-01-08T00:58:20.206Z,86.03
2019-01-08T01:00:49.441Z,85.78
2019-01-08T01:03:19.202Z,85.85
2019-01-08T01:05:48.284Z,85.88
2019-01-08T01:08:18.192Z,85.83
2019-01-08T01:10:47.307Z,85.63
2019-01-08T01:13:17.818Z,85.61
2019-01-08T01:15:48.376Z,85.49
2019-01-08T01:35:34.390Z,84.87
2019-01-08T01:38:03.548Z,84.70
2019-01-08T01:40:33.447Z,84.48
2019-01-08T01:43:02.886Z,84.28
2019-01-08T01:45:32.005Z,83.84
2019-01-08T01:48:01.173Z,83.41
2019-01-08T01:50:31.089Z,83.25
2019-01-08T01:53:00.200Z,82.74
2019-01-08T01:55:29.318Z,82.70
2019-01-08T01:57:58.422Z,82.68
2019-01-08T02:00:27.593Z,82.55
2019-01-08T02:02:56.927Z,82.50
2019-01-08T02:05:26.242Z,82.35
2019-01-08T02:08:02.085Z,82.54
2019-01-08T02:10:31.439Z,82.42
2019-01-08T02:13:00.578Z,82.35
2019-01-08T02:15:30.597Z,82.17
2019-01-08T02:17:59.844Z,82.12
2019-01-08T02:20:29.200Z,82.01
2019-01-08T02:22:58.256Z,81.92
2019-01-08T02:25:27.402Z,81.82
2019-01-08T02:27:56.508Z,81.87
2019-01-08T02:30:25.733Z,81.68
2019-01-08T02:32:54.949Z,81.79
2019-01-08T02:35:24.130Z,81.54
2019-01-08T02:37:53.284Z,81.35
2019-01-08T02:40:22.966Z,81.13
2019-01-08T02:42:52.122Z,81.22
2019-01-08T02:45:21.222Z,81.19
2019-01-08T02:47:50.460Z,81.12
2019-01-08T02:50:19.618Z,81.08
2019-01-08T02:52:48.761Z,81.19
2019-01-08T02:55:17.946Z,81.11
2019-01-08T02:57:47.347Z,80.93
2019-01-08T03:00:16.545Z,80.88
2019-01-08T03:02:45.687Z,80.97
2019-01-08T03:05:14.824Z,80.85
2019-01-08T03:07:43.960Z,80.81
2019-01-08T03:10:13.189Z,80.51
2019-01-08T03:12:42.344Z,80.66
2019-01-08T03:15:11.553Z,80.40
2019-01-08T03:17:40.697Z,80.63
2019-01-08T03:20:09.793Z,80.35
2019-01-08T03:22:38.909Z,80.49
2019-01-08T03:25:08.096Z,80.29
2019-01-08T03:27:37.234Z,80.33
2019-01-08T03:30:06.765Z,80.27
2019-01-08T03:32:35.873Z,80.25
2019-01-08T03:35:05.316Z,80.09
2019-01-08T03:37:34.486Z,79.78
2019-01-08T03:40:03.626Z,79.69
2019-01-08T03:42:33.608Z,79.63
2019-01-08T03:45:02.747Z,79.28
2019-01-08T03:47:31.817Z,79.28
2019-01-08T03:50:01.039Z,79.36
2019-01-08T03:52:30.414Z,79.05
2019-01-08T03:54:59.524Z,79.17
2019-01-08T03:57:28.605Z,79.15
2019-01-08T03:59:57.652Z,79.11
2019-01-08T04:02:26.723Z,79.00
2019-01-08T04:04:55.842Z,79.29
2019-01-08T04:07:25.115Z,79.07
2019-01-08T04:09:54.348Z,78.86
2019-01-08T04:12:23.647Z,79.08
2019-01-08T04:14:52.811Z,78.95
2019-01-08T04:17:23.318Z,78.89
2019-01-08T04:19:52.472Z,78.57
2019-01-08T04:22:21.712Z,78.61
2019-01-08T04:24:50.755Z,78.66
2019-01-08T04:27:19.871Z,78.58
2019-01-08T04:29:50.706Z,78.55
2019-01-08T04:32:18.239Z,78.19
2019-01-08T04:34:49.769Z,78.18
2019-01-08T04:37:18.890Z,78.42
2019-01-08T04:39:48.101Z,78.10
2019-01-08T04:42:17.311Z,78.03
2019-01-08T04:44:46.403Z,78.09
2019-01-08T04:47:15.443Z,77.91
2019-01-08T04:49:44.807Z,78.01
2019-01-08T04:52:13.944Z,77.95
2019-01-08T04:54:43.256Z,77.90
2019-01-08T04:57:12.337Z,78.15
2019-01-08T04:59:41.443Z,77.95
2019-01-08T05:02:10.555Z,77.89
2019-01-08T05:04:39.633Z,78.11
2019-01-08T05:07:08.829Z,78.02
2019-01-08T05:09:38.051Z,77.88
2019-01-08T05:12:07.325Z,77.95
2019-01-08T05:14:36.479Z,77.79
2019-01-08T05:17:06.498Z,77.69
2019-01-08T05:19:35.600Z,77.68
2019-01-08T05:22:04.784Z,77.52
2019-01-08T05:24:33.966Z,77.53
2019-01-08T05:27:03.091Z,77.38
2019-01-08T05:29:32.312Z,77.52
2019-01-08T05:32:01.507Z,77.33
2019-01-08T05:34:30.601Z,77.22
2019-01-08T05:36:59.728Z,77.24
2019-01-08T05:39:28.867Z,77.26
2019-01-08T05:41:58.071Z,76.98
2019-01-08T05:44:27.256Z,77.05
2019-01-08T05:46:56.793Z,77.16
2019-01-08T05:49:25.883Z,77.15
2019-01-08T05:51:55.862Z,76.93
2019-01-08T05:54:24.963Z,76.80
2019-01-08T05:56:54.058Z,76.72
2019-01-08T05:59:23.155Z,76.81
2019-01-08T06:01:52.260Z,76.70
2019-01-08T06:04:21.355Z,76.64
2019-01-08T06:06:50.478Z,76.70
2019-01-08T06:09:19.733Z,76.55
2019-01-08T06:11:50.098Z,76.64
2019-01-08T06:14:19.401Z,76.58
2019-01-08T06:16:49.496Z,76.48
2019-01-08T06:19:18.486Z,76.63
2019-01-08T06:21:47.613Z,76.49
2019-01-08T06:24:16.703Z,76.54
2019-01-08T06:26:45.833Z,76.42
2019-01-08T06:29:14.911Z,76.57
2019-01-08T06:31:44.045Z,76.40
2019-01-08T06:34:13.389Z,76.23
2019-01-08T06:36:42.583Z,76.20
2019-01-08T06:39:11.634Z,76.26
2019-01-08T06:41:40.734Z,76.22
2019-01-08T06:44:10.550Z,76.04
2019-01-08T06:46:43.178Z,76.04
2019-01-08T06:49:08.870Z,76.03
2019-01-08T06:51:37.970Z,76.11
2019-01-08T06:56:41.986Z,76.07
2019-01-08T06:59:11.498Z,75.93
2019-01-08T07:01:40.897Z,75.91
2019-01-08T07:04:10.826Z,75.65
2019-01-08T07:06:40.061Z,76.03
2019-01-08T07:09:09.417Z,75.82
2019-01-08T07:11:40.670Z,75.88
2019-01-08T07:14:09.875Z,75.92
2019-01-08T07:16:41.389Z,75.94
2019-01-08T07:19:12.484Z,75.86
2019-01-08T07:21:42.107Z,75.88
2019-01-08T07:24:12.668Z,75.89
2019-01-08T07:29:35.494Z,75.93
2019-01-08T07:32:04.753Z,75.71
2019-01-08T07:34:33.976Z,75.69
2019-01-08T07:37:03.063Z,75.59
2019-01-08T07:39:32.146Z,75.73
2019-01-08T07:42:01.525Z,75.45
2019-01-08T07:44:30.766Z,75.50
2019-01-08T07:47:00.051Z,74.99
2019-01-08T07:49:29.114Z,75.37
2019-01-08T07:51:58.238Z,75.27
2019-01-08T07:54:27.323Z,74.91
2019-01-08T07:56:56.467Z,74.89
2019-01-08T07:59:29.970Z,74.70
2019-01-08T08:01:59.023Z,74.53
2019-01-08T08:04:28.670Z,74.45
2019-01-08T08:06:57.727Z,74.43
2019-01-08T08:09:28.329Z,74.29
2019-01-08T08:11:58.243Z,73.89
2019-01-08T08:14:27.309Z,73.97
2019-01-08T08:16:56.665Z,73.70
2019-01-08T08:19:26.734Z,73.41
2019-01-08T08:21:56.001Z,73.57
2019-01-08T08:24:27.282Z,73.73
2019-01-08T08:26:56.543Z,73.54
2019-01-08T08:29:26.673Z,73.76
2019-01-08T08:31:56.069Z,73.70
2019-01-08T08:34:25.249Z,73.71
2019-01-08T08:36:54.391Z,73.49
2019-01-08T08:39:23.669Z,73.17
2019-01-08T08:41:53.128Z,73.16
2019-01-08T08:44:23.074Z,72.95
2019-01-08T08:46:52.236Z,73.15
2019-01-08T08:49:21.265Z,72.87
2019-01-08T08:51:51.212Z,72.67
2019-01-08T08:54:20.345Z,72.68
2019-01-08T08:56:49.512Z,72.79
2019-01-08T08:59:18.899Z,72.75
2019-01-08T09:01:48.379Z,72.81
2019-01-08T09:04:17.571Z,72.71
2019-01-08T09:06:46.748Z,72.83
2019-01-08T09:09:15.948Z,72.94
2019-01-08T09:11:45.260Z,72.87
2019-01-08T09:14:14.468Z,72.82
2019-01-08T09:16:43.544Z,72.87
2019-01-08T09:19:12.978Z,72.67
2019-01-08T09:21:42.855Z,72.58
2019-01-08T09:24:11.952Z,72.62
2019-01-08T09:26:42.003Z,72.25
2019-01-08T09:29:11.128Z,72.38
2019-01-08T09:31:40.224Z,72.32
2019-01-08T09:34:10.549Z,72.28
2019-01-08T09:36:39.745Z,72.24
2019-01-08T09:39:10.136Z,72.20
2019-01-08T09:41:39.740Z,71.92
2019-01-08T09:44:08.993Z,71.89
2019-01-08T09:46:38.115Z,71.90
2019-01-08T09:49:07.243Z,71.85
2019-01-08T09:51:36.508Z,71.76
2019-01-08T09:54:06.387Z,71.73
2019-01-08T09:56:36.232Z,71.65
2019-01-08T09:59:05.426Z,71.67
2019-01-08T10:01:34.663Z,71.52
2019-01-08T10:04:04.238Z,71.56
2019-01-08T10:06:33.638Z,71.69
2019-01-08T10:09:03.002Z,71.74
2019-01-08T10:11:32.139Z,71.66
2019-01-08T10:14:03.113Z,71.59
2019-01-08T10:16:32.392Z,71.49
2019-01-08T10:19:01.918Z,71.72
2019-01-08T10:21:31.302Z,71.71
2019-01-08T10:24:02.148Z,71.56
2019-01-08T10:26:31.847Z,71.44
2019-01-08T10:29:01.129Z,71.25
2019-01-08T10:31:32.568Z,71.33
2019-01-08T10:34:00.392Z,71.12
2019-01-08T10:36:30.898Z,71.16
2019-01-08T10:39:00.196Z,70.93
2019-01-08T10:41:29.308Z,71.14
2019-01-08T10:43:58.357Z,71.17
2019-01-08T10:46:27.522Z,71.22
2019-01-08T10:48:56.955Z,71.06
2019-01-08T10:51:26.782Z,71.22
2019-01-08T10:53:55.943Z,71.16
2019-01-08T10:56:25.094Z,70.77
2019-01-08T10:58:54.252Z,71.09
2019-01-08T11:01:23.347Z,70.90
2019-01-08T11:03:58.612Z,70.75
2019-01-08T11:06:27.697Z,71.09
2019-01-08T11:08:56.832Z,70.76
2019-01-08T11:11:26.863Z,70.64
2019-01-08T11:13:56.054Z,70.83
2019-01-08T11:16:25.180Z,70.83
2019-01-08T11:18:54.273Z,70.76
2019-01-08T11:21:24.695Z,70.70
2019-01-08T11:23:54.055Z,70.71
2019-01-08T11:26:23.978Z,70.76
2019-01-08T11:28:53.100Z,70.58
2019-01-08T11:31:22.215Z,70.61
2019-01-08T11:33:53.652Z,70.55
2019-01-08T11:36:22.710Z,70.56
2019-01-08T11:38:51.931Z,70.68
2019-01-08T11:41:21.032Z,70.61
2019-01-08T11:43:50.178Z,70.61
2019-01-08T11:46:19.497Z,70.62
2019-01-08T11:48:48.625Z,70.64
2019-01-08T11:51:19.236Z,70.71
2019-01-08T11:53:49.046Z,70.58
2019-01-08T11:56:18.597Z,70.57
2019-01-08T11:58:49.202Z,70.48
2019-01-08T12:01:18.609Z,70.35
2019-01-08T12:03:50.125Z,70.49
2019-01-08T12:06:20.549Z,70.50
2019-01-08T12:08:49.871Z,70.55
2019-01-08T12:11:19.065Z,70.34
2019-01-08T12:13:48.247Z,70.40
2019-01-08T12:16:17.601Z,70.54
2019-01-08T12:18:47.167Z,70.31
2019-01-08T12:21:17.377Z,70.30
2019-01-08T12:23:46.697Z,70.06
2019-01-08T12:26:16.783Z,70.06
2019-01-08T12:28:45.898Z,70.21
2019-01-08T12:31:16.264Z,70.16
2019-01-08T12:33:45.442Z,69.77
2019-01-08T12:36:14.704Z,69.84
2019-01-08T12:38:44.007Z,69.87
2019-01-08T12:41:13.370Z,69.76
2019-01-08T12:43:42.847Z,69.67
2019-01-08T12:46:12.364Z,69.45
2019-01-08T12:48:41.786Z,69.50
2019-01-08T12:51:10.986Z,69.15
2019-01-08T12:53:45.121Z,69.00
2019-01-08T12:56:14.411Z,68.94
2019-01-08T12:58:48.771Z,69.01
2019-01-08T13:01:21.021Z,68.98
2019-01-08T13:03:49.467Z,69.16
2019-01-08T13:06:18.550Z,69.20
2019-01-08T13:08:48.795Z,69.22
2019-01-08T13:11:18.866Z,69.37
2019-01-08T13:16:21.550Z,69.50
2019-01-08T13:18:53.248Z,69.53
2019-01-08T13:21:25.850Z,69.44
2019-01-08T13:23:55.048Z,69.18
2019-01-08T13:26:24.484Z,69.05
2019-01-08T13:28:53.924Z,68.82
2019-01-08T13:31:23.128Z,68.95
2019-01-08T13:33:53.133Z,68.59
2019-01-08T13:36:24.552Z,68.36
2019-01-08T13:38:54.790Z,68.45
2019-01-08T13:41:23.933Z,68.42
2019-01-08T13:43:53.334Z,68.09
2019-01-08T13:46:23.397Z,68.01
2019-01-08T13:48:53.150Z,68.31
2019-01-08T13:51:22.342Z,68.16
2019-01-08T13:53:51.583Z,68.05
2019-01-08T13:56:21.900Z,68.10
2019-01-08T13:58:57.954Z,68.06
2019-01-08T14:01:30.382Z,68.12
2019-01-08T14:03:59.737Z,67.80
2019-01-08T14:06:28.907Z,67.67
2019-01-08T14:08:58.990Z,67.39
2019-01-08T14:11:29.711Z,67.26
2019-01-08T14:13:58.854Z,67.14
2019-01-08T14:16:30.037Z,66.82
2019-01-08T14:18:59.182Z,66.70
2019-01-08T14:21:28.504Z,66.63
2019-01-08T14:23:57.799Z,66.97
2019-01-08T14:26:32.415Z,67.19
2019-01-08T14:29:01.502Z,67.39
2019-01-08T14:31:30.953Z,67.44
2019-01-08T14:34:00.020Z,67.53
2019-01-08T14:36:31.929Z,67.52
2019-01-08T14:41:32.725Z,67.74
2019-01-08T14:44:02.402Z,67.79
2019-01-08T14:46:31.584Z,67.90
2019-01-08T14:49:00.704Z,68.11
2019-01-08T14:51:29.857Z,68.28
2019-01-08T14:54:00.286Z,68.20
2019-01-08T14:56:44.633Z,68.15
2019-01-08T14:59:15.798Z,68.28
2019-01-08T15:01:46.547Z,68.62
2019-01-08T15:04:18.823Z,68.06
2019-01-08T15:09:43.364Z,68.47
2019-01-08T15:12:12.533Z,68.63
2019-01-08T15:14:41.891Z,68.68
2019-01-08T15:19:44.974Z,68.64
2019-01-08T15:22:15.007Z,68.89
2019-01-08T15:24:45.349Z,68.92
2019-01-08T15:27:15.542Z,68.93
2019-01-08T15:29:45.985Z,68.92
2019-01-08T15:32:15.346Z,69.18
2019-01-08T15:34:46.746Z,69.07
2019-01-08T15:37:16.555Z,69.18
2019-01-08T15:39:45.928Z,69.25
2019-01-08T15:42:16.281Z,69.41
2019-01-08T15:44:47.083Z,69.30
2019-01-08T15:47:18.402Z,69.31
2019-01-08T15:49:49.473Z,69.42
2019-01-08T15:52:18.693Z,69.52
2019-01-08T15:54:48.571Z,69.40
2019-01-08T15:57:20.053Z,69.34
2019-01-08T15:59:51.958Z,69.34
2019-01-08T16:02:21.209Z,69.38
2019-01-08T16:04:50.753Z,69.45
2019-01-08T16:07:20.006Z,69.61
2019-01-08T16:09:50.072Z,69.75
2019-01-08T16:12:19.501Z,69.62
2019-01-08T16:14:48.711Z,69.72
2019-01-08T16:17:19.412Z,69.80
2019-01-08T16:19:49.680Z,69.74
2019-01-08T16:22:19.154Z,69.86
2019-01-08T16:24:49.149Z,69.90
2019-01-08T16:27:18.557Z,69.93
2019-01-08T16:29:47.899Z,69.90
2019-01-08T16:32:17.052Z,70.13
2019-01-08T16:34:46.255Z,69.97
2019-01-08T16:37:16.335Z,69.93
2019-01-08T16:39:45.533Z,70.10
2019-01-08T16:42:15.406Z,69.99
2019-01-08T16:44:49.360Z,70.10
2019-01-08T16:47:19.129Z,69.98
2019-01-08T16:49:52.461Z,69.90
2019-01-08T16:52:25.905Z,69.71
2019-01-08T16:54:56.133Z,69.61
2019-01-08T16:57:30.216Z,69.39
2019-01-08T17:00:00.005Z,69.45
2019-01-08T17:02:29.178Z,69.44
2019-01-08T17:04:59.577Z,69.54
2019-01-08T17:07:28.692Z,69.68
2019-01-08T17:09:58.040Z,69.87
2019-01-08T17:12:29.163Z,69.85
2019-01-08T17:14:59.362Z,69.71
2019-01-08T17:17:28.552Z,69.87
2019-01-08T17:19:59.291Z,70.03
2019-01-08T17:22:31.170Z,70.00
2019-01-08T17:25:10.264Z,70.01
2019-01-08T17:27:39.445Z,70.12
2019-01-08T17:30:11.271Z,69.98
2019-01-08T17:32:40.557Z,69.96
2019-01-08T17:35:09.733Z,70.11
2019-01-08T17:37:39.114Z,69.95
2019-01-08T17:40:09.538Z,70.17
2019-01-08T17:42:39.905Z,69.98
2019-01-08T17:45:10.294Z,70.12
2019-01-08T17:47:39.309Z,70.16
2019-01-08T17:50:09.633Z,70.09
2019-01-08T17:52:39.066Z,70.05
2019-01-08T17:55:08.231Z,70.25
2019-01-08T17:57:37.329Z,70.26
2019-01-08T18:00:08.887Z,70.44
2019-01-08T18:02:38.135Z,70.60
2019-01-08T18:05:07.492Z,70.64
2019-01-08T18:07:36.731Z,70.55
2019-01-08T18:10:07.971Z,70.79
2019-01-08T18:12:37.742Z,70.62
2019-01-08T18:15:06.840Z,70.66
2019-01-08T18:17:37.140Z,70.66
2019-01-08T18:20:06.652Z,70.39
2019-01-08T18:22:35.952Z,70.54
2019-01-08T18:25:05.677Z,70.37
2019-01-08T18:27:34.747Z,70.52
2019-01-08T18:30:04.056Z,70.58
2019-01-08T18:32:33.579Z,70.40
2019-01-08T18:35:02.598Z,70.74
2019-01-08T18:37:31.771Z,70.55
2019-01-08T18:40:00.856Z,70.40
2019-01-08T18:42:30.294Z,70.78
2019-01-08T18:45:00.478Z,70.64
2019-01-08T18:47:30.486Z,70.91
2019-01-08T18:50:01.848Z,70.59
2019-01-08T18:52:31.887Z,70.78
2019-01-08T18:55:01.227Z,71.03
2019-01-08T18:57:32.885Z,71.05
2019-01-08T19:00:02.050Z,71.29
2019-01-08T19:02:31.310Z,71.33
2019-01-08T19:05:00.593Z,71.44
2019-01-08T19:07:29.619Z,71.44
2019-01-08T19:10:05.579Z,71.41
2019-01-08T19:12:34.658Z,71.60
2019-01-08T19:15:05.971Z,71.45
2019-01-08T19:17:42.517Z,71.75
2019-01-08T19:20:13.824Z,71.63
2019-01-08T19:22:44.088Z,71.60
2019-01-08T19:25:16.278Z,71.57
2019-01-08T19:27:46.195Z,71.61
2019-01-08T19:30:15.947Z,71.59
2019-01-08T19:32:46.490Z,71.36
2019-01-08T19:35:15.655Z,71.17
2019-01-08T19:37:44.791Z,70.90
2019-01-08T19:40:13.843Z,70.66
2019-01-08T19:42:44.051Z,70.59
2019-01-08T19:45:13.205Z,70.55
2019-01-08T19:47:42.335Z,70.30
2019-01-08T19:50:11.489Z,70.22
2019-01-08T19:52:41.427Z,70.33
2019-01-08T19:55:10.847Z,70.47
2019-01-08T19:57:39.975Z,70.31
2019-01-08T20:00:11.283Z,70.31
2019-01-08T20:02:40.665Z,69.84
2019-01-08T20:05:09.996Z,69.74
2019-01-08T20:07:39.946Z,69.76
2019-01-08T20:10:09.119Z,69.67
2019-01-08T20:12:38.329Z,70.02
2019-01-08T20:15:10.509Z,70.13
2019-01-08T20:17:39.748Z,70.30
2019-01-08T20:20:11.464Z,70.22
2019-01-08T20:22:41.654Z,70.41
2019-01-08T20:25:11.104Z,70.34
2019-01-08T20:27:40.174Z,70.52
2019-01-08T20:30:10.715Z,70.45
2019-01-08T20:32:40.598Z,70.57
2019-01-08T20:35:10.278Z,70.63
2019-01-08T20:37:39.133Z,70.61
2019-01-08T20:40:10.257Z,70.74
2019-01-08T20:42:39.318Z,70.54
2019-01-08T20:45:09.198Z,70.72
2019-01-08T20:47:39.226Z,70.84
2019-01-08T20:50:08.382Z,71.22
2019-01-08T20:55:10.893Z,70.96
2019-01-08T20:57:41.633Z,71.00
2019-01-08T21:00:15.024Z,71.04
2019-01-08T21:02:46.181Z,71.16
2019-01-08T21:05:19.268Z,71.10
2019-01-08T21:07:46.294Z,70.94
2019-01-08T21:10:15.961Z,71.21
2019-01-08T21:12:45.091Z,71.00
2019-01-08T21:15:14.213Z,71.13
2019-01-08T21:17:43.263Z,71.23
2019-01-08T21:20:12.444Z,71.12
2019-01-08T21:22:41.479Z,71.06
2019-01-08T21:25:10.682Z,71.14
2019-01-08T21:27:39.979Z,71.14
2019-01-08T21:30:09.355Z,71.18
2019-01-08T21:32:40.278Z,71.30
2019-01-08T21:35:09.655Z,71.00
2019-01-08T21:37:39.385Z,71.14
2019-01-08T21:40:08.977Z,71.08
2019-01-08T21:42:38.415Z,71.16
2019-01-08T21:45:08.360Z,71.02
2019-01-08T21:47:37.589Z,70.96
2019-01-08T21:50:07.366Z,70.83
2019-01-08T21:52:36.541Z,70.83
2019-01-08T21:55:06.661Z,70.79
2019-01-08T21:57:35.807Z,70.71
2019-01-08T22:00:05.698Z,70.65
2019-01-08T22:02:35.113Z,71.14
2019-01-08T22:05:04.330Z,70.82
2019-01-08T22:07:33.492Z,70.88
2019-01-08T22:10:02.598Z,70.79
2019-01-08T22:12:32.735Z,71.03
2019-01-08T22:15:01.878Z,70.89
2019-01-08T22:17:30.919Z,71.12
2019-01-08T22:20:00.268Z,71.05
2019-01-08T22:22:29.327Z,71.01
2019-01-08T22:24:58.412Z,70.90
2019-01-08T22:27:28.598Z,70.82
2019-01-08T22:29:58.878Z,71.10
2019-01-08T22:32:28.099Z,70.92
2019-01-08T22:35:01.966Z,71.09
2019-01-08T22:37:26.505Z,71.10
2019-01-08T22:39:55.615Z,71.09
2019-01-08T22:42:24.949Z,71.12
2019-01-08T22:44:54.035Z,71.27
2019-01-08T22:47:23.403Z,71.13
2019-01-08T22:49:52.548Z,71.15
2019-01-08T22:52:21.696Z,71.14
2019-01-08T22:54:50.822Z,71.22
2019-01-08T22:57:20.091Z,71.44
2019-01-08T22:59:49.305Z,71.28
2019-01-08T23:02:19.306Z,71.48
2019-01-08T23:04:48.624Z,71.58
2019-01-08T23:07:18.038Z,71.62
2019-01-08T23:09:47.339Z,71.73
2019-01-08T23:12:16.503Z,71.74
2019-01-08T23:14:45.599Z,71.81
2019-01-08T23:17:20.902Z,71.78
2019-01-08T23:19:49.972Z,71.88
2019-01-08T23:22:19.179Z,71.81
2019-01-08T23:24:48.271Z,71.69
2019-01-08T23:27:17.556Z,71.90
2019-01-08T23:29:46.682Z,71.96
2019-01-08T23:32:15.903Z,71.79
2019-01-08T23:34:44.966Z,71.85
2019-01-08T23:37:14.111Z,71.73
2019-01-08T23:39:43.382Z,72.04
2019-01-08T23:42:12.538Z,72.11
2019-01-08T23:44:42.546Z,72.17
2019-01-08T23:47:11.673Z,72.26
2019-01-08T23:49:40.771Z,72.17
2019-01-08T23:52:17.253Z,72.59
2019-01-08T23:54:46.398Z,72.76
2019-01-08T23:57:15.885Z,72.61
2019-01-08T23:59:44.984Z,72.60
